createdAt,value
2022-09-28T00:00:13.031Z,9.52
2022-09-28T00:02:16.028Z,9.56
2022-09-28T00:04:20.618Z,9.59
2022-09-28T00:06:25.352Z,9.59
2022-09-28T00:08:28.287Z,9.62
2022-09-28T00:10:31.383Z,9.63
2022-09-28T00:12:34.648Z,9.65
2022-09-28T00:14:37.577Z,9.65
2022-09-28T00:16:43.513Z,9.62
2022-09-28T00:18:46.872Z,9.64
2022-09-28T00:21:01.008Z,9.68
2022-09-28T00:23:04.072Z,9.64
2022-09-28T00:25:08.179Z,9.73
2022-09-28T00:27:11.016Z,9.73
2022-09-28T00:29:22.233Z,9.61
2022-09-28T00:31:25.338Z,9.62
2022-09-28T00:33:28.261Z,9.73
2022-09-28T00:35:31.417Z,9.72
2022-09-28T00:37:37.779Z,9.66
2022-09-28T00:39:41.647Z,9.67
2022-09-28T00:41:45.062Z,9.61
2022-09-28T00:43:47.956Z,9.72
2022-09-28T00:45:57.785Z,9.69
2022-09-28T00:48:00.964Z,9.57
2022-09-28T00:50:07.519Z,9.51
2022-09-28T00:52:12.219Z,9.52
2022-09-28T00:54:17.433Z,9.56
2022-09-28T00:56:22.523Z,9.52
2022-09-28T00:58:28.653Z,9.59
2022-09-28T01:00:32.491Z,9.57
2022-09-28T01:02:35.552Z,9.45
2022-09-28T01:04:39.389Z,9.49
2022-09-28T01:06:42.475Z,9.52
2022-09-28T01:08:46.405Z,9.51
2022-09-28T01:10:51.979Z,9.57
2022-09-28T01:12:56.436Z,9.47
2022-09-28T01:15:01.915Z,9.54
2022-09-28T01:17:09.542Z,9.57
2022-09-28T01:19:33.133Z,9.56
2022-09-28T01:21:42.443Z,9.57
2022-09-28T01:24:09.686Z,9.62
2022-09-28T01:26:44.293Z,9.60
2022-09-28T01:28:48.382Z,9.63
2022-09-28T01:31:00.018Z,9.56
2022-09-28T01:33:06.642Z,9.59
2022-09-28T01:35:11.222Z,9.59
2022-09-28T01:37:16.369Z,9.62
2022-09-28T01:39:21.489Z,9.51
2022-09-28T01:41:25.428Z,9.50
2022-09-28T01:43:30.812Z,9.55
2022-09-28T01:45:37.047Z,9.55
2022-09-28T01:47:41.778Z,9.54
2022-09-28T01:49:48.425Z,9.54
2022-09-28T01:51:55.001Z,9.51
2022-09-28T01:54:02.276Z,9.51
2022-09-28T01:56:16.045Z,9.48
2022-09-28T01:58:23.196Z,9.48
2022-09-28T02:00:29.072Z,9.48
2022-09-28T02:02:36.504Z,9.46
2022-09-28T02:04:42.244Z,9.43
2022-09-28T02:06:49.457Z,9.42
2022-09-28T02:08:55.050Z,9.45
2022-09-28T02:11:16.058Z,9.36
2022-09-28T02:13:22.127Z,9.39
2022-09-28T02:15:30.440Z,9.42
2022-09-28T02:17:34.052Z,9.43
2022-09-28T02:19:37.359Z,9.45
2022-09-28T02:21:43.090Z,9.44
2022-09-28T02:23:55.312Z,9.44
2022-09-28T02:26:03.057Z,9.42
2022-09-28T02:28:08.033Z,9.42
2022-09-28T02:30:11.773Z,9.43
2022-09-28T02:32:16.627Z,9.43
2022-09-28T02:34:19.748Z,9.43
2022-09-28T02:36:23.145Z,9.37
2022-09-28T02:38:26.026Z,9.36
2022-09-28T02:40:33.099Z,9.34
2022-09-28T02:42:49.248Z,9.41
2022-09-28T02:45:15.082Z,9.44
2022-09-28T02:47:28.589Z,9.40
2022-09-28T02:49:36.102Z,9.46
2022-09-28T02:51:43.408Z,9.44
2022-09-28T02:54:02.201Z,9.50
2022-09-28T02:56:16.891Z,9.40
2022-09-28T02:58:23.316Z,9.37
2022-09-28T03:00:27.962Z,9.43
2022-09-28T03:02:37.110Z,9.50
2022-09-28T03:04:44.229Z,9.53
2022-09-28T03:06:57.924Z,9.42
2022-09-28T03:09:05.670Z,9.45
2022-09-28T03:11:16.649Z,9.45
2022-09-28T03:13:23.041Z,9.50
2022-09-28T03:15:28.306Z,9.49
2022-09-28T03:17:33.645Z,9.49
2022-09-28T03:19:37.156Z,9.50
2022-09-28T03:21:41.342Z,9.45
2022-09-28T03:23:44.719Z,9.46
2022-09-28T03:25:47.640Z,9.43
2022-09-28T03:27:50.805Z,9.44
2022-09-28T03:29:53.743Z,9.47
2022-09-28T03:31:57.049Z,9.50
2022-09-28T03:34:01.352Z,9.42
2022-09-28T03:36:04.393Z,9.42
2022-09-28T03:38:07.422Z,9.40
2022-09-28T03:40:13.906Z,9.29
2022-09-28T03:42:16.804Z,9.37
2022-09-28T03:44:23.995Z,9.20
2022-09-28T03:46:28.061Z,9.18
2022-09-28T03:48:37.592Z,9.30
2022-09-28T03:50:42.927Z,9.24
2022-09-28T03:52:46.034Z,9.21
2022-09-28T03:54:49.515Z,9.15
2022-09-28T03:56:52.882Z,9.21
2022-09-28T03:58:56.094Z,9.20
2022-09-28T04:01:03.408Z,9.27
2022-09-28T04:03:06.661Z,9.33
2022-09-28T04:05:09.994Z,9.33
2022-09-28T04:07:15.423Z,9.18
2022-09-28T04:09:18.929Z,9.30
2022-09-28T04:11:21.885Z,9.16
2022-09-28T04:13:25.122Z,9.14
2022-09-28T04:15:27.999Z,9.18
2022-09-28T04:17:34.632Z,9.31
2022-09-28T04:19:42.219Z,9.35
2022-09-28T04:22:01.487Z,9.36
2022-09-28T04:24:06.292Z,9.41
2022-09-28T04:26:16.644Z,9.43
2022-09-28T04:28:37.237Z,9.28
2022-09-28T04:30:40.446Z,9.35
2022-09-28T04:32:43.355Z,9.31
2022-09-28T04:34:46.201Z,9.32
2022-09-28T04:36:51.173Z,9.38
2022-09-28T04:38:54.576Z,9.28
2022-09-28T04:41:01.254Z,9.29
2022-09-28T04:43:04.400Z,9.35
2022-09-28T04:45:09.444Z,9.31
2022-09-28T04:47:15.809Z,9.30
2022-09-28T04:49:38.399Z,9.32
2022-09-28T04:51:46.696Z,9.32
2022-09-28T04:53:49.591Z,9.28
2022-09-28T04:55:57.917Z,9.29
2022-09-28T04:58:03.290Z,9.13
2022-09-28T05:00:08.329Z,9.20
2022-09-28T05:02:15.483Z,9.20
2022-09-28T05:04:50.543Z,9.24
2022-09-28T05:07:12.083Z,9.26
2022-09-28T05:09:15.101Z,9.22
2022-09-28T05:14:54.136Z,9.19
2022-09-28T05:16:57.222Z,9.21
2022-09-28T05:19:03.185Z,9.24
2022-09-28T05:21:12.864Z,9.17
2022-09-28T05:23:16.812Z,9.20
2022-09-28T05:25:19.845Z,9.26
2022-09-28T05:27:31.657Z,9.25
2022-09-28T05:29:43.482Z,9.31
2022-09-28T05:32:06.467Z,9.25
2022-09-28T05:34:19.263Z,9.30
2022-09-28T05:36:23.930Z,9.32
2022-09-28T05:38:27.060Z,9.35
2022-09-28T05:40:30.148Z,9.36
2022-09-28T05:42:33.374Z,9.37
2022-09-28T05:44:38.640Z,9.39
2022-09-28T05:46:41.842Z,9.42
2022-09-28T05:48:49.827Z,9.36
2022-09-28T05:50:54.338Z,9.41
2022-09-28T05:53:02.410Z,9.41
2022-09-28T05:55:06.420Z,9.40
2022-09-28T05:57:10.116Z,9.28
2022-09-28T05:59:15.509Z,9.31
2022-09-28T06:01:18.681Z,9.38
2022-09-28T06:03:22.270Z,9.35
2022-09-28T06:05:27.169Z,9.39
2022-09-28T06:07:30.233Z,9.33
2022-09-28T06:09:33.130Z,9.16
2022-09-28T06:11:48.336Z,9.29
2022-09-28T06:14:06.341Z,9.31
2022-09-28T06:16:10.550Z,9.35
2022-09-28T06:18:15.188Z,9.33
2022-09-28T06:20:39.710Z,9.36
2022-09-28T06:22:45.406Z,9.30
2022-09-28T06:24:49.182Z,9.31
2022-09-28T06:26:52.135Z,9.39
2022-09-28T06:28:56.215Z,9.36
2022-09-28T06:31:05.150Z,9.27
2022-09-28T06:33:15.059Z,9.41
2022-09-28T06:35:18.040Z,9.32
2022-09-28T06:37:22.305Z,9.38
2022-09-28T06:39:26.549Z,9.50
2022-09-28T06:41:29.690Z,9.52
2022-09-28T06:43:39.706Z,9.51
2022-09-28T06:45:53.017Z,9.50
2022-09-28T06:48:15.124Z,9.46
2022-09-28T06:50:19.446Z,9.55
2022-09-28T06:52:42.401Z,9.58
2022-09-28T06:55:00.037Z,9.65
2022-09-28T06:57:15.125Z,9.65
2022-09-28T06:59:18.128Z,9.79
2022-09-28T07:01:21.633Z,9.65
2022-09-28T07:03:35.119Z,9.64
2022-09-28T07:05:54.934Z,9.78
2022-09-28T07:08:20.241Z,9.86
2022-09-28T07:10:44.499Z,9.88
2022-09-28T07:13:08.535Z,9.94
2022-09-28T07:15:22.872Z,10.02
2022-09-28T07:17:26.136Z,10.10
2022-09-28T07:19:30.718Z,10.19
2022-09-28T07:21:33.946Z,10.24
2022-09-28T07:23:50.827Z,10.32
2022-09-28T07:25:59.197Z,10.11
2022-09-28T07:28:20.361Z,10.21
2022-09-28T07:30:35.372Z,10.30
2022-09-28T07:32:52.165Z,10.34
2022-09-28T07:35:09.037Z,10.28
2022-09-28T07:37:24.340Z,10.32
2022-09-28T07:39:28.977Z,10.10
2022-09-28T07:41:33.825Z,10.20
2022-09-28T07:43:40.326Z,10.29
2022-09-28T07:45:44.867Z,10.33
2022-09-28T07:47:48.114Z,10.27
2022-09-28T07:50:29.398Z,10.30
2022-09-28T07:52:57.429Z,10.20
2022-09-28T07:55:12.788Z,10.19
2022-09-28T07:57:26.784Z,10.12
2022-09-28T07:59:58.771Z,10.21
2022-09-28T08:02:23.547Z,10.27
2022-09-28T08:04:28.402Z,10.15
2022-09-28T08:06:32.504Z,10.23
2022-09-28T08:08:35.840Z,10.07
2022-09-28T08:10:44.450Z,10.17
2022-09-28T08:13:20.386Z,10.17
2022-09-28T08:15:37.078Z,10.27
2022-09-28T08:18:07.079Z,10.15
2022-09-28T08:20:28.014Z,10.20
2022-09-28T08:22:32.342Z,10.27
2022-09-28T08:24:36.507Z,10.39
2022-09-28T08:26:40.937Z,10.48
2022-09-28T08:28:45.261Z,10.48
2022-09-28T08:31:09.556Z,10.49
2022-09-28T08:33:30.945Z,10.44
2022-09-28T08:35:57.502Z,10.40
2022-09-28T08:38:19.034Z,10.39
2022-09-28T08:40:47.959Z,10.57
2022-09-28T08:43:11.571Z,10.60
2022-09-28T08:45:36.095Z,10.84
2022-09-28T08:48:08.616Z,11.06
2022-09-28T08:50:31.626Z,10.88
2022-09-28T08:52:58.484Z,11.21
2022-09-28T08:55:26.086Z,11.32
2022-09-28T08:57:33.469Z,11.45
2022-09-28T08:59:45.219Z,11.44
2022-09-28T09:01:58.076Z,11.38
2022-09-28T09:04:02.546Z,11.32
2022-09-28T09:06:31.317Z,11.40
2022-09-28T09:08:42.659Z,11.45
2022-09-28T09:10:52.125Z,11.38
2022-09-28T09:13:18.401Z,11.36
2022-09-28T09:15:41.646Z,11.47
2022-09-28T09:18:04.805Z,11.33
2022-09-28T09:20:20.689Z,11.27
2022-09-28T09:22:38.210Z,11.39
2022-09-28T09:24:49.391Z,11.32
2022-09-28T09:27:01.658Z,11.36
2022-09-28T09:29:23.605Z,11.42
2022-09-28T09:31:44.848Z,11.40
2022-09-28T09:34:25.083Z,11.47
2022-09-28T09:36:58.654Z,11.60
2022-09-28T09:39:35.227Z,11.47
2022-09-28T09:42:28.264Z,11.62
2022-09-28T09:45:18.560Z,11.94
2022-09-28T09:47:43.250Z,12.15
2022-09-28T09:50:08.405Z,12.30
2022-09-28T09:52:16.149Z,12.01
2022-09-28T09:54:23.118Z,11.86
2022-09-28T09:56:31.337Z,11.67
2022-09-28T09:58:48.014Z,11.87
2022-09-28T10:00:56.452Z,11.45
2022-09-28T10:03:24.148Z,11.41
2022-09-28T10:05:32.166Z,11.63
2022-09-28T10:07:43.258Z,11.34
2022-09-28T10:09:47.725Z,11.58
2022-09-28T10:11:58.929Z,11.72
2022-09-28T10:14:01.982Z,11.76
2022-09-28T10:16:34.259Z,11.62
2022-09-28T10:18:40.370Z,11.74
2022-09-28T10:21:13.358Z,11.75
2022-09-28T10:23:28.347Z,11.75
2022-09-28T10:25:33.659Z,11.76
2022-09-28T10:27:40.736Z,11.74
2022-09-28T10:29:53.780Z,11.73
2022-09-28T10:31:57.122Z,11.44
2022-09-28T10:34:05.897Z,11.53
2022-09-28T10:36:08.901Z,11.58
2022-09-28T10:38:17.059Z,11.55
2022-09-28T10:40:30.310Z,11.85
2022-09-28T10:42:37.428Z,11.92
2022-09-28T10:44:57.855Z,12.06
2022-09-28T10:47:23.220Z,12.13
2022-09-28T10:49:28.586Z,12.23
2022-09-28T10:51:45.139Z,12.24
2022-09-28T10:54:03.130Z,12.12
2022-09-28T10:56:23.956Z,12.09
2022-09-28T10:58:39.310Z,11.95
2022-09-28T11:00:44.776Z,12.02
2022-09-28T11:02:50.680Z,12.06
2022-09-28T11:05:00.708Z,12.18
2022-09-28T11:07:17.911Z,12.25
2022-09-28T11:09:30.584Z,12.43
2022-09-28T11:11:41.663Z,12.36
2022-09-28T11:13:47.108Z,12.35
2022-09-28T11:15:54.447Z,12.54
2022-09-28T11:18:20.657Z,12.44
2022-09-28T11:20:35.576Z,12.50
2022-09-28T11:22:44.342Z,12.54
2022-09-28T11:24:48.660Z,12.59
2022-09-28T11:26:54.393Z,12.48
2022-09-28T11:29:01.190Z,12.50
2022-09-28T11:31:16.226Z,12.56
2022-09-28T11:33:40.604Z,12.50
2022-09-28T11:36:29.647Z,12.53
2022-09-28T11:38:34.954Z,12.63
2022-09-28T11:41:15.127Z,12.76
2022-09-28T11:43:45.840Z,12.56
2022-09-28T11:45:53.248Z,12.87
2022-09-28T11:47:59.183Z,13.02
2022-09-28T11:50:06.413Z,13.04
2022-09-28T11:52:14.914Z,13.19
2022-09-28T11:54:28.828Z,13.14
2022-09-28T11:56:35.865Z,13.36
2022-09-28T11:58:41.977Z,13.52
2022-09-28T12:00:51.739Z,13.61
2022-09-28T12:03:01.999Z,13.66
2022-09-28T12:05:18.495Z,13.73
2022-09-28T12:07:29.275Z,13.72
2022-09-28T12:09:37.931Z,13.70
2022-09-28T12:11:59.935Z,13.81
2022-09-28T12:14:22.771Z,13.59
2022-09-28T12:18:56.226Z,13.76
2022-09-28T12:21:09.828Z,13.81
2022-09-28T12:23:17.219Z,13.41
2022-09-28T12:25:22.550Z,13.55
2022-09-28T12:27:29.195Z,13.38
2022-09-28T12:29:36.468Z,13.41
2022-09-28T12:31:42.156Z,13.41
2022-09-28T12:33:47.772Z,13.39
2022-09-28T12:36:07.075Z,13.44
2022-09-28T12:38:28.834Z,13.74
2022-09-28T12:40:38.383Z,13.98
2022-09-28T12:42:52.397Z,13.95
2022-09-28T12:45:08.178Z,14.02
2022-09-28T12:47:43.523Z,14.13
2022-09-28T12:52:30.932Z,14.90
2022-09-28T12:54:57.403Z,15.21
2022-09-28T12:57:09.670Z,15.19
2022-09-28T12:59:19.413Z,15.41
2022-09-28T13:01:36.205Z,15.54
2022-09-28T13:04:15.475Z,15.67
2022-09-28T13:06:42.638Z,15.59
2022-09-28T13:08:56.358Z,15.48
2022-09-28T13:11:08.231Z,15.08
2022-09-28T13:13:26.888Z,15.11
2022-09-28T13:15:51.504Z,14.90
2022-09-28T13:18:01.756Z,14.91
2022-09-28T13:20:16.064Z,14.80
2022-09-28T13:22:28.443Z,14.46
2022-09-28T13:24:35.614Z,14.21
2022-09-28T13:26:44.972Z,13.74
2022-09-28T13:28:48.515Z,13.50
2022-09-28T13:30:52.409Z,13.45
2022-09-28T13:32:57.602Z,13.27
2022-09-28T13:35:02.180Z,13.33
2022-09-28T13:37:24.141Z,13.01
2022-09-28T13:39:38.719Z,13.16
2022-09-28T13:41:48.801Z,13.12
2022-09-28T13:44:17.937Z,13.08
2022-09-28T13:46:26.521Z,13.02
2022-09-28T13:48:42.572Z,12.77
2022-09-28T13:51:17.711Z,12.85
2022-09-28T13:53:28.388Z,12.85
2022-09-28T13:55:37.172Z,13.04
2022-09-28T13:57:47.644Z,13.00
2022-09-28T13:59:59.176Z,13.15
2022-09-28T14:02:07.759Z,13.23
2022-09-28T14:04:19.029Z,13.36
2022-09-28T14:06:24.443Z,13.48
2022-09-28T14:08:34.668Z,13.67
2022-09-28T14:10:51.992Z,13.77
2022-09-28T14:12:56.513Z,13.67
2022-09-28T14:15:00.331Z,13.77
2022-09-28T14:17:48.949Z,13.93
2022-09-28T14:19:54.528Z,13.99
2022-09-28T14:22:09.184Z,14.16
2022-09-28T14:24:27.418Z,14.05
2022-09-28T14:27:03.924Z,14.07
2022-09-28T14:29:17.052Z,14.15
2022-09-28T14:31:26.479Z,14.20
2022-09-28T14:33:31.453Z,14.49
2022-09-28T14:35:41.771Z,14.56
2022-09-28T14:38:06.038Z,14.40
2022-09-28T14:40:36.273Z,14.34
2022-09-28T14:42:40.375Z,14.12
2022-09-28T14:45:21.867Z,14.29
2022-09-28T14:47:27.398Z,14.34
2022-09-28T14:49:53.279Z,14.29
2022-09-28T14:52:05.838Z,14.16
2022-09-28T14:54:17.135Z,14.23
2022-09-28T14:56:20.750Z,14.05
2022-09-28T14:58:28.673Z,13.97
2022-09-28T15:00:33.129Z,13.94
2022-09-28T15:02:38.451Z,13.88
2022-09-28T15:04:44.933Z,13.80
2022-09-28T15:06:49.294Z,13.72
2022-09-28T15:08:52.865Z,13.66
2022-09-28T15:10:56.848Z,13.63
2022-09-28T15:13:01.862Z,13.60
2022-09-28T15:15:08.973Z,13.46
2022-09-28T15:17:14.895Z,13.47
2022-09-28T15:19:23.813Z,13.40
2022-09-28T15:21:35.011Z,13.33
2022-09-28T15:23:39.943Z,13.27
2022-09-28T15:25:51.671Z,13.27
2022-09-28T15:27:56.391Z,13.26
2022-09-28T15:30:00.255Z,13.10
2022-09-28T15:32:04.087Z,13.19
2022-09-28T15:34:30.925Z,13.20
2022-09-28T15:36:36.332Z,13.17
2022-09-28T15:39:25.666Z,13.23
2022-09-28T15:41:29.208Z,13.24
2022-09-28T15:43:33.902Z,13.24
2022-09-28T15:45:44.612Z,13.21
2022-09-28T15:47:47.610Z,13.28
2022-09-28T15:49:58.704Z,13.28
2022-09-28T15:52:03.189Z,13.23
2022-09-28T15:54:19.339Z,13.03
2022-09-28T15:56:22.930Z,12.99
2022-09-28T15:58:26.444Z,13.08
2022-09-28T16:00:31.490Z,13.06
2022-09-28T16:02:34.502Z,13.06
2022-09-28T16:04:40.006Z,13.08
2022-09-28T16:06:44.374Z,13.01
2022-09-28T16:08:48.926Z,12.87
2022-09-28T16:10:55.996Z,12.87
2022-09-28T16:13:08.471Z,12.91
2022-09-28T16:15:20.237Z,12.86
2022-09-28T16:17:33.676Z,12.90
2022-09-28T16:19:38.341Z,12.86
2022-09-28T16:21:47.249Z,12.85
2022-09-28T16:23:52.143Z,12.73
2022-09-28T16:25:58.843Z,12.71
2022-09-28T16:28:02.166Z,12.69
2022-09-28T16:30:16.291Z,12.73
2022-09-28T16:32:41.754Z,12.70
2022-09-28T16:34:44.816Z,12.57
2022-09-28T16:36:50.465Z,12.63
2022-09-28T16:38:54.390Z,12.60
2022-09-28T16:41:01.354Z,12.59
2022-09-28T16:43:07.175Z,12.61
2022-09-28T16:45:15.538Z,12.45
2022-09-28T16:47:19.247Z,12.46
2022-09-28T16:49:23.634Z,12.49
2022-09-28T16:51:26.627Z,12.45
2022-09-28T16:53:48.193Z,12.50
2022-09-28T16:55:51.113Z,12.47
2022-09-28T16:57:54.150Z,12.48
2022-09-28T16:59:56.973Z,12.37
2022-09-28T17:02:00.007Z,12.27
2022-09-28T17:04:03.340Z,12.33
2022-09-28T17:06:11.778Z,12.37
2022-09-28T17:08:17.509Z,12.38
2022-09-28T17:10:25.560Z,12.28
2022-09-28T17:12:29.165Z,12.19
2022-09-28T17:14:32.831Z,12.21
2022-09-28T17:17:06.107Z,12.16
2022-09-28T17:19:01.127Z,12.22
2022-09-28T17:21:07.569Z,12.15
2022-09-28T17:23:10.444Z,12.15
2022-09-28T17:25:13.425Z,12.04
2022-09-28T17:27:21.284Z,11.95
2022-09-28T17:29:24.245Z,12.03
2022-09-28T17:31:27.464Z,11.95
2022-09-28T17:33:30.672Z,11.93
2022-09-28T17:35:38.849Z,11.78
2022-09-28T17:37:42.791Z,11.69
2022-09-28T17:39:45.773Z,11.74
2022-09-28T17:41:48.716Z,11.70
2022-09-28T17:43:53.143Z,11.62
2022-09-28T17:45:56.108Z,11.65
2022-09-28T17:48:00.703Z,11.72
2022-09-28T17:50:04.001Z,11.68
2022-09-28T17:52:07.251Z,11.59
2022-09-28T17:54:10.294Z,11.59
2022-09-28T17:56:13.360Z,11.54
2022-09-28T17:58:18.078Z,11.49
2022-09-28T18:00:23.004Z,11.56
2022-09-28T18:02:27.085Z,11.52
2022-09-28T18:04:50.666Z,11.51
2022-09-28T18:06:54.092Z,11.51
2022-09-28T18:08:57.045Z,11.47
2022-09-28T18:11:01.626Z,11.47
2022-09-28T18:13:04.727Z,11.37
2022-09-28T18:15:09.070Z,11.40
2022-09-28T18:17:13.535Z,11.46
2022-09-28T18:19:16.593Z,11.39
2022-09-28T18:21:19.867Z,11.30
2022-09-28T18:23:23.136Z,11.31
2022-09-28T18:25:29.819Z,11.33
2022-09-28T18:27:35.518Z,11.25
2022-09-28T18:29:38.528Z,11.33
2022-09-28T18:31:41.600Z,11.30
2022-09-28T18:33:46.339Z,11.30
2022-09-28T18:35:53.036Z,11.25
2022-09-28T18:37:55.996Z,11.21
2022-09-28T18:39:59.339Z,11.13
2022-09-28T18:42:02.409Z,11.08
2022-09-28T18:44:05.346Z,11.04
2022-09-28T18:46:09.336Z,11.06
2022-09-28T18:48:13.957Z,11.11
2022-09-28T18:50:18.303Z,11.05
2022-09-28T18:52:21.283Z,11.00
2022-09-28T18:54:25.410Z,11.03
2022-09-28T18:56:29.716Z,10.97
2022-09-28T18:58:35.748Z,10.90
2022-09-28T19:00:40.213Z,10.95
2022-09-28T19:02:43.525Z,10.92
2022-09-28T19:04:46.549Z,10.86
2022-09-28T19:06:54.431Z,10.77
2022-09-28T19:08:58.181Z,10.90
2022-09-28T19:11:08.489Z,10.80
2022-09-28T19:13:11.464Z,10.83
2022-09-28T19:15:14.503Z,10.85
2022-09-28T19:17:18.391Z,10.85
2022-09-28T19:19:21.941Z,10.91
2022-09-28T19:21:25.057Z,10.81
2022-09-28T19:23:30.864Z,10.74
2022-09-28T19:25:34.120Z,10.75
2022-09-28T19:27:37.523Z,10.76
2022-09-28T19:29:40.555Z,10.70
2022-09-28T19:31:44.620Z,10.61
2022-09-28T19:33:48.191Z,10.59
2022-09-28T19:35:57.213Z,10.55
2022-09-28T19:38:00.258Z,10.56
2022-09-28T19:40:06.006Z,10.50
2022-09-28T19:42:09.141Z,10.52
2022-09-28T19:44:15.835Z,10.39
2022-09-28T19:46:18.998Z,10.40
2022-09-28T19:48:26.608Z,10.28
2022-09-28T19:50:30.201Z,10.14
2022-09-28T19:52:33.206Z,10.11
2022-09-28T19:54:37.649Z,10.15
2022-09-28T19:56:43.208Z,10.23
2022-09-28T19:58:46.228Z,10.23
2022-09-28T20:00:49.273Z,10.28
2022-09-28T20:02:52.987Z,10.28
2022-09-28T20:04:55.983Z,10.24
2022-09-28T20:06:58.990Z,10.27
2022-09-28T20:09:02.413Z,10.27
2022-09-28T20:11:08.407Z,10.09
2022-09-28T20:13:12.831Z,10.18
2022-09-28T20:15:16.630Z,10.20
2022-09-28T20:17:21.682Z,10.27
2022-09-28T20:19:24.712Z,10.24
2022-09-28T20:21:27.924Z,10.26
2022-09-28T20:23:31.377Z,10.26
2022-09-28T20:25:35.590Z,10.26
2022-09-28T20:27:39.198Z,10.28
2022-09-28T20:29:43.514Z,10.31
2022-09-28T20:31:46.546Z,10.31
2022-09-28T20:33:49.941Z,10.31
2022-09-28T20:35:52.908Z,10.32
2022-09-28T20:37:59.205Z,10.32
2022-09-28T20:40:02.726Z,10.32
2022-09-28T20:42:06.485Z,10.29
2022-09-28T20:44:09.961Z,10.13
2022-09-28T20:46:17.660Z,10.25
2022-09-28T20:48:21.797Z,10.25
2022-09-28T20:50:25.337Z,10.23
2022-09-28T20:52:28.405Z,10.19
2022-09-28T20:54:32.251Z,10.18
2022-09-28T20:56:38.282Z,10.13
2022-09-28T20:58:41.926Z,10.10
2022-09-28T21:00:45.750Z,10.05
2022-09-28T21:02:53.920Z,9.97
2022-09-28T21:04:57.064Z,9.96
2022-09-28T21:07:00.012Z,9.90
2022-09-28T21:09:03.743Z,9.78
2022-09-28T21:11:09.436Z,9.69
2022-09-28T21:13:12.498Z,9.74
2022-09-28T21:15:15.564Z,9.60
2022-09-28T21:17:18.530Z,9.63
2022-09-28T21:19:24.177Z,9.58
2022-09-28T21:21:27.383Z,9.64
2022-09-28T21:23:30.388Z,9.69
2022-09-28T21:25:33.340Z,9.65
2022-09-28T21:27:36.554Z,9.65
2022-09-28T21:29:39.460Z,9.66
2022-09-28T21:31:45.661Z,9.69
2022-09-28T21:33:48.647Z,9.63
2022-09-28T21:35:53.080Z,9.62
2022-09-28T21:37:56.131Z,9.48
2022-09-28T21:39:59.494Z,9.52
2022-09-28T21:42:02.469Z,9.50
2022-09-28T21:44:05.555Z,9.54
2022-09-28T21:46:08.622Z,9.53
2022-09-28T21:48:11.759Z,9.57
2022-09-28T21:50:15.139Z,9.58
2022-09-28T21:52:19.419Z,9.56
2022-09-28T21:54:22.504Z,9.55
2022-09-28T21:56:26.747Z,9.55
2022-09-28T21:58:31.357Z,9.55
2022-09-28T22:00:34.537Z,9.55
2022-09-28T22:02:38.990Z,9.53
2022-09-28T22:04:42.049Z,9.52
2022-09-28T22:06:45.009Z,9.49
2022-09-28T22:08:50.133Z,9.47
2022-09-28T22:11:00.881Z,9.44
2022-09-28T22:13:03.812Z,9.39
2022-09-28T22:15:08.170Z,9.31
2022-09-28T22:17:11.096Z,9.21
2022-09-28T22:19:13.992Z,9.20
2022-09-28T22:21:18.732Z,9.12
2022-09-28T22:23:22.724Z,9.07
2022-09-28T22:25:27.208Z,9.06
2022-09-28T22:27:32.914Z,9.07
2022-09-28T22:29:36.008Z,9.10
2022-09-28T22:31:40.688Z,9.02
2022-09-28T22:33:43.715Z,9.01
2022-09-28T22:35:49.135Z,9.01
2022-09-28T22:37:52.098Z,8.97
2022-09-28T22:39:55.338Z,8.82
2022-09-28T22:41:59.738Z,8.91
2022-09-28T22:44:02.987Z,8.88
2022-09-28T22:46:10.346Z,8.85
2022-09-28T22:48:13.892Z,8.82
2022-09-28T22:50:16.918Z,8.77
2022-09-28T22:52:19.787Z,8.76
2022-09-28T22:54:22.733Z,8.73
2022-09-28T22:56:26.003Z,8.65
2022-09-28T22:58:30.260Z,8.58
2022-09-28T23:00:33.389Z,8.57
2022-09-28T23:02:36.354Z,8.52
2022-09-28T23:04:39.356Z,8.49
2022-09-28T23:06:42.490Z,8.49
2022-09-28T23:08:45.970Z,8.49
2022-09-28T23:10:49.677Z,8.41
2022-09-28T23:12:54.837Z,8.39
2022-09-28T23:14:59.144Z,8.35
2022-09-28T23:17:02.111Z,8.35
2022-09-28T23:19:05.183Z,8.33
2022-09-28T23:21:10.752Z,8.30
2022-09-28T23:23:14.513Z,8.26
2022-09-28T23:25:18.800Z,8.26
2022-09-28T23:27:22.156Z,8.25
2022-09-28T23:29:25.149Z,8.26
2022-09-28T23:31:31.476Z,8.25
2022-09-28T23:33:34.547Z,8.23
2022-09-28T23:35:37.495Z,8.21
2022-09-28T23:37:40.564Z,8.12
2022-09-28T23:39:44.419Z,8.13
2022-09-28T23:41:47.432Z,8.16
2022-09-28T23:43:50.382Z,8.14
2022-09-28T23:45:53.450Z,8.15
2022-09-28T23:47:57.979Z,8.10
2022-09-28T23:50:00.961Z,8.14
2022-09-28T23:52:03.866Z,8.12
2022-09-28T23:54:06.893Z,8.08
2022-09-28T23:56:09.849Z,8.06
2022-09-28T23:58:13.576Z,8.04
